LZKZ Airport Information

Runway Information
Runway 01 Length 10171 ft width 148 ft
Elevation 739 ft Threshold 0 ft Heading 13
Runway 19 Length 10171 ft Width 148 ft
Elevation 753 ft Threshold 0 ft Heading 193
Airport Frequencies
Type APP Name APP Frequency 119.85 MHZ
Type TWR Name TWR Frequency 120.4 MHZ
Airport Navaids
Type NDB Name Kosice Frequency 425 KHZ
Type VOR-DME Name Kosice Frequency 108200 KHZ
Airport Weather Information & NOTAM
ADDS - METARS form results

(1511 UTC 08 December 2019)
Data provider http://aviationweather.gov/metar/data/
 
METAR text: LZKZ 081500Z 20009KT 0700 R01/1700D FZFG OVC001 M00/M00 Q1016 NOSIG
Conditions at: LZKZ (KOSICE BARCA , SK) observed 1500 UTC 08 December 2019
Temperature: 0.0°C (32°F)
Dewpoint: 0.0°C (32°F) [RH = 100%]
Pressure (altimeter): 30.00 inches Hg (1016.0 mb)
Winds: from the SSW (200 degrees) at 10 MPH (9 knots; 4.6 m/s)
Visibility: 0.43 miles (0.69 km)
Ceiling: 100 feet AGL
Clouds: overcast cloud deck at 100 feet AGL
Weather: FZFG  (freezing fog)

METAR text: LZKZ 081430Z 21004KT 0300 R01/0650N FZFG OVC001 M00/M00 Q1016 NOSIG
Conditions at: LZKZ (KOSICE BARCA , SK) observed 1430 UTC 08 December 2019
Temperature: 0.0°C (32°F)
Dewpoint: 0.0°C (32°F) [RH = 100%]
Pressure (altimeter): 30.00 inches Hg (1016.0 mb)
Winds: from the SSW (210 degrees) at 5 MPH (4 knots; 2.1 m/s)
Visibility: 0.19 miles (0.31 km)
Ceiling: 100 feet AGL
Clouds: overcast cloud deck at 100 feet AGL
Weather: FZFG  (freezing fog)

Forecast for: LZKZ (KOSICE BARCA , SK)
Text: TAF LZKZ 081100Z 0812/0912 VRB02KT 1200 BR OVC004
Forecast period: 1200 UTC 08 December 2019 to 0900 UTC 09 December 2019
Forecast type: FROM: standard forecast or significant change
Winds: variable direction winds at 2 MPH (2 knots; 1.0 m/s)
Visibility: 0.75 miles (1.21 km)
Ceiling: 400 feet AGL
Clouds: overcast cloud deck at 400 feet AGL
Weather: BR  (mist)
Text: TEMPO 0812/0910 0300 FZFG OVC002
Forecast period: 1200 UTC 08 December 2019 to 1000 UTC 09 December 2019
Forecast type: TEMPORARY: The following changes expected for less than half the time period
Visibility: 0.19 miles (0.31 km)
Ceiling: 200 feet AGL
Clouds: overcast cloud deck at 200 feet AGL
Weather: FZFG  (freezing fog)
Text: PROB30
Forecast period: 1200 to 1500 UTC 08 December 2019
Forecast type: TEMPORARY: The following changes expected for less than half the time period
Winds: from the SSW (210 degrees) at 12 MPH (10 knots; 5.1 m/s)
Visibility: 1.86 miles (2.99 km)
Ceiling: 500 feet AGL
Clouds: broken clouds at 500 feet AGL
Weather: BR  (mist)
Text: TEMPO 0812/0815 21010KT 3000 BR BKN005
Forecast period: 0900 to 1200 UTC 09 December 2019
Forecast type: BECOMING: Conditions expected to become as follows by 1100 UTC 09 December 2019
Winds: variable direction winds at 2 MPH (2 knots; 1.0 m/s)
Visibility: 0.87 miles (1.40 km)
Ceiling: 500 feet AGL
Clouds: broken clouds at 500 feet AGL
Weather: BR  (mist)